sensor_id;sensor_type;location;lat;lon;timestamp;pressure;altitude;pressure_sealevel;temperature;humidity
77013;BME280;67260;53.130;17.982;2024-03-23T00:54:08;100274.40;;;8.12;86.13
77013;BME280;67260;53.130;17.982;2024-03-23T00:56:43;100267.55;;;8.11;86.14
77013;BME280;67260;53.130;17.982;2024-03-23T00:59:41;100264.80;;;8.12;86.14
77013;BME280;67260;53.130;17.982;2024-03-23T01:02:07;100269.80;;;8.13;85.89
77013;BME280;67260;53.130;17.982;2024-03-23T01:04:50;100273.59;;;8.12;85.90
77013;BME280;67260;53.130;17.982;2024-03-23T01:10:09;100275.58;;;8.11;85.93
77013;BME280;67260;53.130;17.982;2024-03-23T01:12:35;100273.05;;;8.08;85.99
77013;BME280;67260;53.130;17.982;2024-03-23T01:15:01;100278.54;;;8.07;86.17
77013;BME280;67260;53.130;17.982;2024-03-23T01:17:27;100277.40;;;8.06;86.04
77013;BME280;67260;53.130;17.982;2024-03-23T01:24:18;100281.99;;;8.05;86.34
77013;BME280;67260;53.130;17.982;2024-03-23T01:26:44;100279.11;;;8.05;86.22
77013;BME280;67260;53.130;17.982;2024-03-23T01:29:12;100276.87;;;8.05;86.02
77013;BME280;67260;53.130;17.982;2024-03-23T01:35:56;100267.91;;;8.03;85.92
77013;BME280;67260;53.130;17.982;2024-03-23T01:41:41;100265.80;;;8.02;85.86
77013;BME280;67260;53.130;17.982;2024-03-23T01:44:11;100266.69;;;8.02;86.01
77013;BME280;67260;53.130;17.982;2024-03-23T01:46:38;100266.08;;;8.01;86.03
77013;BME280;67260;53.130;17.982;2024-03-23T01:49:05;100265.75;;;8.00;85.98
77013;BME280;67260;53.130;17.982;2024-03-23T01:51:32;100266.52;;;7.99;86.15
77013;BME280;67260;53.130;17.982;2024-03-23T01:57:27;100264.48;;;7.97;86.14
77013;BME280;67260;53.130;17.982;2024-03-23T01:59:55;100263.14;;;7.94;86.09
77013;BME280;67260;53.130;17.982;2024-03-23T02:02:23;100262.64;;;7.93;86.18
77013;BME280;67260;53.130;17.982;2024-03-23T02:04:49;100262.85;;;7.93;86.14
77013;BME280;67260;53.130;17.982;2024-03-23T02:07:16;100260.36;;;7.93;86.06
77013;BME280;67260;53.130;17.982;2024-03-23T02:13:26;100258.13;;;7.91;86.41
77013;BME280;67260;53.130;17.982;2024-03-23T02:15:52;100252.42;;;7.90;86.29
77013;BME280;67260;53.130;17.982;2024-03-23T02:18:18;100251.70;;;7.90;86.29
77013;BME280;67260;53.130;17.982;2024-03-23T02:24:00;100240.50;;;7.88;86.46
77013;BME280;67260;53.130;17.982;2024-03-23T02:26:29;100238.59;;;7.88;86.23
77013;BME280;67260;53.130;17.982;2024-03-23T02:28:55;100232.60;;;7.86;86.04
77013;BME280;67260;53.130;17.982;2024-03-23T02:31:24;100232.97;;;7.85;86.06
77013;BME280;67260;53.130;17.982;2024-03-23T02:33:50;100226.09;;;7.81;85.88
77013;BME280;67260;53.130;17.982;2024-03-23T02:36:16;100220.34;;;7.77;85.98
77013;BME280;67260;53.130;17.982;2024-03-23T02:38:42;100224.77;;;7.75;85.86
77013;BME280;67260;53.130;17.982;2024-03-23T02:41:08;100222.89;;;7.73;85.73
77013;BME280;67260;53.130;17.982;2024-03-23T02:43:35;100221.80;;;7.72;85.66
77013;BME280;67260;53.130;17.982;2024-03-23T02:46:02;100215.45;;;7.71;85.73
77013;BME280;67260;53.130;17.982;2024-03-23T02:51:50;100211.41;;;7.68;85.79
77013;BME280;67260;53.130;17.982;2024-03-23T02:54:16;100203.84;;;7.66;85.76
77013;BME280;67260;53.130;17.982;2024-03-23T02:56:43;100205.23;;;7.65;85.87
77013;BME280;67260;53.130;17.982;2024-03-23T02:59:13;100197.30;;;7.64;85.95
77013;BME280;67260;53.130;17.982;2024-03-23T03:01:42;100190.41;;;7.63;85.83
77013;BME280;67260;53.130;17.982;2024-03-23T03:11:05;100175.84;;;7.58;86.11
77013;BME280;67260;53.130;17.982;2024-03-23T03:13:32;100176.02;;;7.58;86.07
77013;BME280;67260;53.130;17.982;2024-03-23T03:20:57;100173.77;;;7.57;85.94
77013;BME280;67260;53.130;17.982;2024-03-23T03:44:03;100164.05;;;7.53;85.83
77013;BME280;67260;53.130;17.982;2024-03-23T03:46:34;100158.55;;;7.49;86.50
77013;BME280;67260;53.130;17.982;2024-03-23T03:49:00;100154.15;;;7.50;86.27
77013;BME280;67260;53.130;17.982;2024-03-23T03:52:30;100158.75;;;7.50;86.31
77013;BME280;67260;53.130;17.982;2024-03-23T03:59:15;100156.31;;;7.50;86.38
77013;BME280;67260;53.130;17.982;2024-03-23T04:01:42;100155.86;;;7.51;86.46
77013;BME280;67260;53.130;17.982;2024-03-23T04:04:10;100158.23;;;7.51;86.45
77013;BME280;67260;53.130;17.982;2024-03-23T04:06:36;100159.81;;;7.51;86.43
77013;BME280;67260;53.130;17.982;2024-03-23T04:16:51;100145.70;;;7.51;86.69
77013;BME280;67260;53.130;17.982;2024-03-23T04:19:25;100151.23;;;7.51;86.59
77013;BME280;67260;53.130;17.982;2024-03-23T04:21:51;100150.94;;;7.50;86.82
77013;BME280;67260;53.130;17.982;2024-03-23T04:24:18;100153.50;;;7.50;86.64
77013;BME280;67260;53.130;17.982;2024-03-23T04:33:39;100135.96;;;7.42;86.52
77013;BME280;67260;53.130;17.982;2024-03-23T04:40:22;100135.02;;;7.38;86.58
77013;BME280;67260;53.130;17.982;2024-03-23T04:42:48;100134.77;;;7.35;86.21
77013;BME280;67260;53.130;17.982;2024-03-23T04:45:15;100137.73;;;7.34;86.29
77013;BME280;67260;53.130;17.982;2024-03-23T04:47:42;100136.76;;;7.34;86.53
77013;BME280;67260;53.130;17.982;2024-03-23T04:50:13;100136.72;;;7.34;86.47
77013;BME280;67260;53.130;17.982;2024-03-23T04:52:39;100133.42;;;7.34;86.42
77013;BME280;67260;53.130;17.982;2024-03-23T04:55:13;100139.89;;;7.32;86.52
77013;BME280;67260;53.130;17.982;2024-03-23T04:57:39;100139.40;;;7.30;86.54
77013;BME280;67260;53.130;17.982;2024-03-23T05:00:06;100129.93;;;7.28;86.42
77013;BME280;67260;53.130;17.982;2024-03-23T05:02:43;100124.25;;;7.26;86.37
77013;BME280;67260;53.130;17.982;2024-03-23T05:05:11;100123.11;;;7.25;86.33
77013;BME280;67260;53.130;17.982;2024-03-23T05:07:40;100119.02;;;7.23;86.32
77013;BME280;67260;53.130;17.982;2024-03-23T05:10:09;100119.73;;;7.23;86.64
77013;BME280;67260;53.130;17.982;2024-03-23T05:12:39;100114.13;;;7.21;86.42
77013;BME280;67260;53.130;17.982;2024-03-23T05:18:17;100096.28;;;7.20;86.22
77013;BME280;67260;53.130;17.982;2024-03-23T05:20:57;100096.92;;;7.19;86.05
77013;BME280;67260;53.130;17.982;2024-03-23T05:37:26;100084.81;;;7.35;86.43
77013;BME280;67260;53.130;17.982;2024-03-23T05:39:53;100082.14;;;7.39;86.49
77013;BME280;67260;53.130;17.982;2024-03-23T05:42:20;100082.75;;;7.40;86.24
77013;BME280;67260;53.130;17.982;2024-03-23T05:44:46;100077.79;;;7.40;86.29
77013;BME280;67260;53.130;17.982;2024-03-23T05:47:45;100073.48;;;7.40;86.09
77013;BME280;67260;53.130;17.982;2024-03-23T05:50:50;100052.63;;;7.42;86.03
77013;BME280;67260;53.130;17.982;2024-03-23T05:53:46;100032.55;;;7.44;85.45
77013;BME280;67260;53.130;17.982;2024-03-23T05:56:58;100039.54;;;7.58;84.85
77013;BME280;67260;53.130;17.982;2024-03-23T06:31:31;100030.76;;;7.74;84.72
77013;BME280;67260;53.130;17.982;2024-03-23T06:34:17;100026.31;;;7.75;84.54
77013;BME280;67260;53.130;17.982;2024-03-23T06:36:50;100028.91;;;7.76;84.21
77013;BME280;67260;53.130;17.982;2024-03-23T06:39:21;100034.13;;;7.77;83.95
77013;BME280;67260;53.130;17.982;2024-03-23T06:45:26;100034.48;;;7.81;84.23
77013;BME280;67260;53.130;17.982;2024-03-23T06:47:54;100033.70;;;7.83;84.40
77013;BME280;67260;53.130;17.982;2024-03-23T06:53:28;100033.27;;;7.80;84.27
77013;BME280;67260;53.130;17.982;2024-03-23T06:55:54;100034.09;;;7.76;84.35
77013;BME280;67260;53.130;17.982;2024-03-23T06:58:24;100026.48;;;7.75;84.34
77013;BME280;67260;53.130;17.982;2024-03-23T07:00:54;100028.64;;;7.74;83.94
77013;BME280;67260;53.130;17.982;2024-03-23T07:03:22;100031.19;;;7.71;83.72
77013;BME280;67260;53.130;17.982;2024-03-23T07:05:50;100028.59;;;7.68;83.62
77013;BME280;67260;53.130;17.982;2024-03-23T07:08:20;100023.67;;;7.66;83.52
77013;BME280;67260;53.130;17.982;2024-03-23T07:10:49;100023.31;;;7.64;83.39
77013;BME280;67260;53.130;17.982;2024-03-23T07:28:56;100015.42;;;7.67;84.48
77013;BME280;67260;53.130;17.982;2024-03-23T07:38:45;100006.52;;;7.58;85.15
77013;BME280;67260;53.130;17.982;2024-03-23T07:44:52;100008.35;;;7.52;85.30
77013;BME280;67260;53.130;17.982;2024-03-23T07:50:20;100006.97;;;7.45;85.68
77013;BME280;67260;53.130;17.982;2024-03-23T07:52:50;100008.92;;;7.45;85.68
77013;BME280;67260;53.130;17.982;2024-03-23T07:58:03;99995.63;;;7.48;85.60
77013;BME280;67260;53.130;17.982;2024-03-23T08:04:12;99989.09;;;7.46;85.60
77013;BME280;67260;53.130;17.982;2024-03-23T08:06:40;99985.80;;;7.46;85.51
77013;BME280;67260;53.130;17.982;2024-03-23T08:09:06;99979.65;;;7.44;85.33
77013;BME280;67260;53.130;17.982;2024-03-23T08:11:32;99972.66;;;7.44;85.38
77013;BME280;67260;53.130;17.982;2024-03-23T08:21:43;99970.55;;;7.44;85.63
77013;BME280;67260;53.130;17.982;2024-03-23T08:24:12;99957.25;;;7.45;85.17
77013;BME280;67260;53.130;17.982;2024-03-23T08:26:42;99954.94;;;7.47;84.87
77013;BME280;67260;53.130;17.982;2024-03-23T08:32:59;99947.17;;;7.50;84.68
77013;BME280;67260;53.130;17.982;2024-03-23T08:36:34;99940.99;;;7.41;83.89
77013;BME280;67260;53.130;17.982;2024-03-23T08:39:03;99949.13;;;7.35;83.86
77013;BME280;67260;53.130;17.982;2024-03-23T08:41:29;99948.28;;;7.31;84.11
77013;BME280;67260;53.130;17.982;2024-03-23T08:43:59;99942.11;;;7.30;84.05
77013;BME280;67260;53.130;17.982;2024-03-23T08:49:24;99938.27;;;7.41;84.35
77013;BME280;67260;53.130;17.982;2024-03-23T08:51:50;99948.23;;;7.43;84.13
77013;BME280;67260;53.130;17.982;2024-03-23T08:57:47;99953.11;;;7.36;84.13
77013;BME280;67260;53.130;17.982;2024-03-23T09:00:40;99944.05;;;7.34;84.24
77013;BME280;67260;53.130;17.982;2024-03-23T09:03:22;99932.27;;;7.33;84.00
77013;BME280;67260;53.130;17.982;2024-03-23T09:09:06;99909.02;;;7.25;83.93
77013;BME280;67260;53.130;17.982;2024-03-23T09:11:34;99898.65;;;7.24;83.98
77013;BME280;67260;53.130;17.982;2024-03-23T09:17:27;99897.64;;;7.30;84.29
77013;BME280;67260;53.130;17.982;2024-03-23T09:22:51;99898.36;;;7.20;83.90
77013;BME280;67260;53.130;17.982;2024-03-23T09:28:52;99901.61;;;7.25;83.90
77013;BME280;67260;53.130;17.982;2024-03-23T09:31:34;99892.47;;;7.22;83.21
77013;BME280;67260;53.130;17.982;2024-03-23T09:34:08;99887.32;;;7.18;83.10
77013;BME280;67260;53.130;17.982;2024-03-23T09:36:39;99883.05;;;7.19;82.99
77013;BME280;67260;53.130;17.982;2024-03-23T09:43:07;99867.33;;;7.20;82.52
77013;BME280;67260;53.130;17.982;2024-03-23T09:51:50;99864.75;;;7.32;81.98
77013;BME280;67260;53.130;17.982;2024-03-23T09:54:33;99858.40;;;7.28;81.69
77013;BME280;67260;53.130;17.982;2024-03-23T09:57:56;99860.92;;;7.26;82.12
77013;BME280;67260;53.130;17.982;2024-03-23T10:00:54;99856.38;;;7.33;81.99
77013;BME280;67260;53.130;17.982;2024-03-23T10:20:00;99844.84;;;7.58;81.74
77013;BME280;67260;53.130;17.982;2024-03-23T10:49:56;99813.80;;;7.74;80.38
77013;BME280;67260;53.130;17.982;2024-03-23T10:52:37;99806.03;;;7.73;80.28
77013;BME280;67260;53.130;17.982;2024-03-23T11:41:03;99737.40;;;7.77;79.38
77013;BME280;67260;53.130;17.982;2024-03-23T11:43:35;99733.23;;;7.78;79.32
77013;BME280;67260;53.130;17.982;2024-03-23T12:00:24;99718.69;;;7.48;79.65
77013;BME280;67260;53.130;17.982;2024-03-23T12:03:07;99706.73;;;7.42;79.63
77013;BME280;67260;53.130;17.982;2024-03-23T12:29:27;99692.48;;;7.16;80.38
77013;BME280;67260;53.130;17.982;2024-03-23T12:32:01;99695.92;;;7.08;80.89
77013;BME280;67260;53.130;17.982;2024-03-23T12:34:28;99688.98;;;7.05;81.05
77013;BME280;67260;53.130;17.982;2024-03-23T12:48:38;99652.98;;;6.77;81.89
77013;BME280;67260;53.130;17.982;2024-03-23T12:51:06;99649.61;;;6.72;82.30
77013;BME280;67260;53.130;17.982;2024-03-23T12:53:42;99643.33;;;6.69;82.43
77013;BME280;67260;53.130;17.982;2024-03-23T13:07:49;99578.05;;;6.45;83.42
77013;BME280;67260;53.130;17.982;2024-03-23T13:10:17;99567.81;;;6.49;82.88
77013;BME280;67260;53.130;17.982;2024-03-23T13:12:47;99567.58;;;6.44;81.83
77013;BME280;67260;53.130;17.982;2024-03-23T13:34:30;99610.05;;;6.06;82.37
77013;BME280;67260;53.130;17.982;2024-03-23T13:41:34;99607.80;;;5.87;82.44
77013;BME280;67260;53.130;17.982;2024-03-23T13:44:09;99620.27;;;5.90;82.88
77013;BME280;67260;53.130;17.982;2024-03-23T13:46:46;99622.94;;;5.90;82.64
77013;BME280;67260;53.130;17.982;2024-03-23T14:21:04;99687.69;;;5.49;82.85
77013;BME280;67260;53.130;17.982;2024-03-23T14:37:12;99698.91;;;5.34;82.68
77013;BME280;67260;53.130;17.982;2024-03-23T14:39:42;99707.17;;;5.36;82.96
77013;BME280;67260;53.130;17.982;2024-03-23T14:45:09;99707.48;;;5.44;83.45
77013;BME280;67260;53.130;17.982;2024-03-23T14:47:35;99713.23;;;5.44;83.35
77013;BME280;67260;53.130;17.982;2024-03-23T14:50:01;99729.11;;;5.43;83.57
77013;BME280;67260;53.130;17.982;2024-03-23T14:52:31;99742.08;;;5.41;83.23
77013;BME280;67260;53.130;17.982;2024-03-23T14:54:58;99767.63;;;5.35;83.21
77013;BME280;67260;53.130;17.982;2024-03-23T14:57:28;99781.86;;;5.31;83.42
77013;BME280;67260;53.130;17.982;2024-03-23T14:59:58;99782.85;;;5.26;83.08
77013;BME280;67260;53.130;17.982;2024-03-23T15:03:24;99770.81;;;5.17;82.83
77013;BME280;67260;53.130;17.982;2024-03-23T15:06:26;99769.98;;;5.08;83.01
77013;BME280;67260;53.130;17.982;2024-03-23T15:08:53;99776.13;;;5.04;83.15
77013;BME280;67260;53.130;17.982;2024-03-23T15:11:39;99768.25;;;5.02;82.88
77013;BME280;67260;53.130;17.982;2024-03-23T15:14:19;99763.73;;;4.96;82.68
77013;BME280;67260;53.130;17.982;2024-03-23T15:16:48;99771.75;;;4.92;82.97
77013;BME280;67260;53.130;17.982;2024-03-23T15:19:20;99781.04;;;4.87;83.00
77013;BME280;67260;53.130;17.982;2024-03-23T15:21:46;99776.57;;;4.85;82.99
77013;BME280;67260;53.130;17.982;2024-03-23T15:24:13;99778.54;;;4.84;82.85
77013;BME280;67260;53.130;17.982;2024-03-23T15:26:39;99789.72;;;4.84;82.99
77013;BME280;67260;53.130;17.982;2024-03-23T15:29:09;99802.36;;;4.87;83.11
77013;BME280;67260;53.130;17.982;2024-03-23T15:31:49;99812.76;;;4.91;83.32
77013;BME280;67260;53.130;17.982;2024-03-23T15:34:29;99818.05;;;4.96;83.62
77013;BME280;67260;53.130;17.982;2024-03-23T15:36:56;99827.56;;;5.00;83.93
77013;BME280;67260;53.130;17.982;2024-03-23T15:39:32;99855.80;;;5.03;83.67
77013;BME280;67260;53.130;17.982;2024-03-23T15:45:28;99856.49;;;5.03;84.05
77013;BME280;67260;53.130;17.982;2024-03-23T15:48:19;99849.42;;;5.06;84.13
77013;BME280;67260;53.130;17.982;2024-03-23T15:51:03;99846.23;;;5.05;83.88
77013;BME280;67260;53.130;17.982;2024-03-23T15:53:30;99850.02;;;5.06;83.61
77013;BME280;67260;53.130;17.982;2024-03-23T15:55:58;99848.30;;;5.07;83.45
77013;BME280;67260;53.130;17.982;2024-03-23T15:58:29;99838.17;;;5.06;83.17
77013;BME280;67260;53.130;17.982;2024-03-23T16:00:57;99843.73;;;5.08;83.36
77013;BME280;67260;53.130;17.982;2024-03-23T16:07:13;99851.12;;;5.22;83.01
77013;BME280;67260;53.130;17.982;2024-03-23T16:09:39;99877.99;;;5.24;83.17
77013;BME280;67260;53.130;17.982;2024-03-23T16:16:00;99889.66;;;5.25;83.42
77013;BME280;67260;53.130;17.982;2024-03-23T16:18:58;99895.40;;;5.20;83.05
77013;BME280;67260;53.130;17.982;2024-03-23T16:21:25;99897.55;;;5.18;83.48
77013;BME280;67260;53.130;17.982;2024-03-23T16:23:51;99894.66;;;5.16;83.35
77013;BME280;67260;53.130;17.982;2024-03-23T16:26:17;99899.05;;;5.13;83.40
77013;BME280;67260;53.130;17.982;2024-03-23T16:29:52;99911.30;;;5.05;83.54
77013;BME280;67260;53.130;17.982;2024-03-23T16:32:19;99913.45;;;5.06;83.73
77013;BME280;67260;53.130;17.982;2024-03-23T16:34:48;99897.30;;;5.08;83.72
77013;BME280;67260;53.130;17.982;2024-03-23T16:44:52;99902.47;;;5.10;83.06
77013;BME280;67260;53.130;17.982;2024-03-23T17:24:12;99915.21;;;3.82;84.20
77013;BME280;67260;53.130;17.982;2024-03-23T17:26:56;99917.90;;;3.74;84.52
77013;BME280;67260;53.130;17.982;2024-03-23T17:29:23;99912.05;;;3.69;84.52
77013;BME280;67260;53.130;17.982;2024-03-23T17:32:21;99896.56;;;3.65;84.78
77013;BME280;67260;53.130;17.982;2024-03-23T17:35:03;99890.41;;;3.60;84.61
77013;BME280;67260;53.130;17.982;2024-03-23T17:37:29;99886.88;;;3.57;84.61
77013;BME280;67260;53.130;17.982;2024-03-23T17:39:55;99895.09;;;3.51;84.73
77013;BME280;67260;53.130;17.982;2024-03-23T17:55:14;99922.77;;;3.36;85.14
77013;BME280;67260;53.130;17.982;2024-03-23T17:58:24;99924.53;;;3.35;85.24
77013;BME280;67260;53.130;17.982;2024-03-23T18:10:09;99941.10;;;3.11;85.60
77013;BME280;67260;53.130;17.982;2024-03-23T18:12:54;99942.98;;;3.04;85.67
77013;BME280;67260;53.130;17.982;2024-03-23T18:30:05;99990.60;;;2.90;86.40
77013;BME280;67260;53.130;17.982;2024-03-23T18:32:34;99996.80;;;2.89;86.46
77013;BME280;67260;53.130;17.982;2024-03-23T18:35:00;99997.18;;;2.92;86.70
77013;BME280;67260;53.130;17.982;2024-03-23T18:37:45;99996.38;;;2.94;86.59
77013;BME280;67260;53.130;17.982;2024-03-23T18:40:23;99986.38;;;2.90;86.12
77013;BME280;67260;53.130;17.982;2024-03-23T18:42:53;99980.75;;;2.83;85.95
77013;BME280;67260;53.130;17.982;2024-03-23T18:45:48;99972.52;;;2.77;86.42
77013;BME280;67260;53.130;17.982;2024-03-23T18:52:11;99998.65;;;2.67;86.65
77013;BME280;67260;53.130;17.982;2024-03-23T18:55:16;100024.69;;;2.59;86.71
77013;BME280;67260;53.130;17.982;2024-03-23T18:58:09;100093.95;;;2.55;87.35
77013;BME280;67260;53.130;17.982;2024-03-23T19:01:04;100119.73;;;2.52;87.19
77013;BME280;67260;53.130;17.982;2024-03-23T19:03:51;100123.30;;;2.48;87.30
77013;BME280;67260;53.130;17.982;2024-03-23T19:06:25;100086.05;;;2.46;87.26
77013;BME280;67260;53.130;17.982;2024-03-23T19:09:16;100059.85;;;2.47;87.40
77013;BME280;67260;53.130;17.982;2024-03-23T19:12:03;100083.50;;;2.46;87.54
77013;BME280;67260;53.130;17.982;2024-03-23T19:14:30;100081.33;;;2.42;87.16
77013;BME280;67260;53.130;17.982;2024-03-23T19:17:06;100064.45;;;2.40;87.26
77013;BME280;67260;53.130;17.982;2024-03-23T19:19:33;100051.05;;;2.41;87.50
77013;BME280;67260;53.130;17.982;2024-03-23T19:22:05;100053.31;;;2.41;87.38
77013;BME280;67260;53.130;17.982;2024-03-23T19:24:46;100055.15;;;2.40;87.35
77013;BME280;67260;53.130;17.982;2024-03-23T19:27:42;100067.98;;;2.38;87.23
77013;BME280;67260;53.130;17.982;2024-03-23T19:30:15;100065.68;;;2.37;87.33
77013;BME280;67260;53.130;17.982;2024-03-23T19:32:49;100071.95;;;2.34;87.43
77013;BME280;67260;53.130;17.982;2024-03-23T19:39:12;100071.20;;;2.30;87.49
77013;BME280;67260;53.130;17.982;2024-03-23T19:41:39;100091.32;;;2.29;87.63
77013;BME280;67260;53.130;17.982;2024-03-23T19:44:47;100096.19;;;2.24;87.64
77013;BME280;67260;53.130;17.982;2024-03-23T19:47:13;100096.98;;;2.22;87.80
77013;BME280;67260;53.130;17.982;2024-03-23T19:49:55;100105.24;;;2.18;87.90
77013;BME280;67260;53.130;17.982;2024-03-23T19:52:21;100120.12;;;2.15;87.86
77013;BME280;67260;53.130;17.982;2024-03-23T19:54:47;100121.77;;;2.13;88.03
77013;BME280;67260;53.130;17.982;2024-03-23T19:57:13;100114.23;;;2.13;88.03
77013;BME280;67260;53.130;17.982;2024-03-23T20:00:17;100122.70;;;2.10;88.37
77013;BME280;67260;53.130;17.982;2024-03-23T20:02:46;100104.99;;;2.11;88.29
77013;BME280;67260;53.130;17.982;2024-03-23T20:05:12;100100.31;;;2.11;88.09
77013;BME280;67260;53.130;17.982;2024-03-23T20:07:41;100100.31;;;2.11;88.11
77013;BME280;67260;53.130;17.982;2024-03-23T20:10:12;100105.95;;;2.10;88.04
77013;BME280;67260;53.130;17.982;2024-03-23T20:12:38;100107.64;;;2.11;88.06
77013;BME280;67260;53.130;17.982;2024-03-23T20:15:07;100105.98;;;2.12;88.20
77013;BME280;67260;53.130;17.982;2024-03-23T20:17:34;100100.06;;;2.10;87.77
77013;BME280;67260;53.130;17.982;2024-03-23T20:20:03;100101.36;;;2.03;87.64
77013;BME280;67260;53.130;17.982;2024-03-23T20:22:29;100101.90;;;1.98;87.65
77013;BME280;67260;53.130;17.982;2024-03-23T20:25:24;100095.04;;;1.92;87.52
77013;BME280;67260;53.130;17.982;2024-03-23T20:27:57;100077.56;;;1.84;87.58
77013;BME280;67260;53.130;17.982;2024-03-23T20:30:25;100082.27;;;1.77;87.51
77013;BME280;67260;53.130;17.982;2024-03-23T20:32:52;100086.45;;;1.70;87.62
77013;BME280;67260;53.130;17.982;2024-03-23T20:38:58;100077.89;;;1.59;87.78
77013;BME280;67260;53.130;17.982;2024-03-23T20:45:38;100074.80;;;1.50;88.30
77013;BME280;67260;53.130;17.982;2024-03-23T21:04:01;100052.37;;;1.51;89.01
77013;BME280;67260;53.130;17.982;2024-03-23T21:07:13;100055.09;;;1.50;88.69
77013;BME280;67260;53.130;17.982;2024-03-23T21:27:56;100029.83;;;1.50;88.82
77013;BME280;67260;53.130;17.982;2024-03-23T21:31:03;100027.31;;;1.49;88.78
77013;BME280;67260;53.130;17.982;2024-03-23T22:08:44;99987.16;;;1.50;89.13
77013;BME280;67260;53.130;17.982;2024-03-23T22:16:07;99985.46;;;1.55;89.36
77013;BME280;67260;53.130;17.982;2024-03-23T22:38:15;99975.35;;;1.50;89.53
77013;BME280;67260;53.130;17.982;2024-03-23T22:41:35;99975.29;;;1.54;89.68
77013;BME280;67260;53.130;17.982;2024-03-23T22:45:25;99974.56;;;1.54;89.14
77013;BME280;67260;53.130;17.982;2024-03-23T22:48:28;99978.13;;;1.55;89.46
77013;BME280;67260;53.130;17.982;2024-03-23T22:50:59;99972.43;;;1.54;89.52
77013;BME280;67260;53.130;17.982;2024-03-23T22:53:29;99972.73;;;1.53;89.41
77013;BME280;67260;53.130;17.982;2024-03-23T23:00:04;99966.45;;;1.52;89.50
77013;BME280;67260;53.130;17.982;2024-03-23T23:03:14;99963.38;;;1.53;89.74
77013;BME280;67260;53.130;17.982;2024-03-23T23:09:41;99959.69;;;1.64;89.89
77013;BME280;67260;53.130;17.982;2024-03-23T23:12:57;99961.70;;;1.69;89.75
77013;BME280;67260;53.130;17.982;2024-03-23T23:15:33;99958.97;;;1.76;89.52
77013;BME280;67260;53.130;17.982;2024-03-23T23:18:02;99964.95;;;1.78;89.54
77013;BME280;67260;53.130;17.982;2024-03-23T23:20:29;99967.39;;;1.83;89.53
77013;BME280;67260;53.130;17.982;2024-03-23T23:23:26;99973.39;;;1.90;89.70
77013;BME280;67260;53.130;17.982;2024-03-23T23:26:21;99962.20;;;2.00;89.72
77013;BME280;67260;53.130;17.982;2024-03-23T23:36:02;99966.73;;;2.24;88.87
77013;BME280;67260;53.130;17.982;2024-03-23T23:43:40;99967.52;;;2.33;89.20
